createdAt,value
2024-01-22T00:01:31.658Z,1.19
2024-01-22T00:06:39.559Z,1.16
2024-01-22T00:11:42.998Z,1.14
2024-01-22T00:16:45.894Z,1.16
2024-01-22T00:21:49.292Z,1.16
2024-01-22T00:26:52.276Z,1.13
2024-01-22T00:31:55.121Z,1.11
2024-01-22T00:36:58.025Z,1.10
2024-01-22T00:42:00.989Z,1.14
2024-01-22T00:47:03.901Z,1.15
2024-01-22T00:52:06.639Z,1.13
2024-01-22T00:57:09.684Z,1.11
2024-01-22T01:02:12.533Z,1.09
2024-01-22T01:07:15.423Z,1.12
2024-01-22T01:12:18.241Z,1.11
2024-01-22T01:17:21.133Z,1.08
2024-01-22T01:22:24.093Z,1.05
2024-01-22T01:27:26.991Z,1.04
2024-01-22T01:32:30.203Z,1.05
2024-01-22T01:37:33.074Z,1.02
2024-01-22T01:42:36.040Z,1.01
2024-01-22T01:47:38.969Z,0.98
2024-01-22T01:52:43.102Z,1.00
2024-01-22T01:57:51.038Z,0.99
2024-01-22T02:02:57.487Z,0.96
2024-01-22T02:08:00.557Z,0.90
2024-01-22T02:13:07.857Z,0.93
2024-01-22T02:18:11.260Z,0.98
2024-01-22T02:23:14.314Z,0.97
2024-01-22T02:28:17.226Z,0.97
2024-01-22T02:33:20.490Z,1.02
2024-01-22T02:38:23.439Z,1.03
2024-01-22T02:43:26.465Z,1.03
2024-01-22T02:48:29.528Z,1.02
2024-01-22T02:53:32.631Z,1.02
2024-01-22T02:58:35.475Z,1.03
2024-01-22T03:03:39.005Z,1.03
2024-01-22T03:08:42.370Z,1.02
2024-01-22T03:13:45.224Z,1.03
2024-01-22T03:18:49.093Z,1.06
2024-01-22T03:23:52.334Z,1.06
2024-01-22T03:28:55.606Z,1.06
2024-01-22T03:33:58.692Z,1.05
2024-01-22T03:39:01.601Z,1.07
2024-01-22T03:44:06.504Z,1.09
2024-01-22T03:49:09.927Z,1.09
2024-01-22T03:54:12.802Z,1.09
2024-01-22T03:59:15.998Z,1.11
2024-01-22T04:04:18.772Z,1.13
2024-01-22T04:09:21.610Z,1.13
2024-01-22T04:14:24.497Z,1.14
2024-01-22T04:19:27.543Z,1.20
2024-01-22T04:24:30.611Z,1.29
2024-01-22T04:29:36.702Z,1.33
2024-01-22T04:34:40.938Z,1.35
2024-01-22T04:39:43.945Z,1.37
2024-01-22T04:44:46.942Z,1.42
2024-01-22T04:49:50.149Z,1.48
2024-01-22T04:54:57.033Z,1.50
2024-01-22T05:00:02.335Z,1.52
2024-01-22T05:05:05.528Z,1.57
2024-01-22T05:10:14.750Z,1.61
2024-01-22T05:15:18.464Z,1.62
2024-01-22T05:20:21.585Z,1.60
2024-01-22T05:25:24.440Z,1.61
2024-01-22T05:30:27.354Z,1.60
2024-01-22T05:35:30.211Z,1.61
2024-01-22T05:40:32.994Z,1.72
2024-01-22T05:45:35.779Z,1.73
2024-01-22T05:50:38.822Z,1.76
2024-01-22T05:55:41.796Z,1.79
2024-01-22T06:00:44.899Z,1.82
2024-01-22T06:05:49.039Z,1.82
2024-01-22T06:10:52.308Z,1.83
2024-01-22T06:15:55.240Z,1.89
2024-01-22T06:20:59.007Z,1.91
2024-01-22T06:26:02.506Z,1.92
2024-01-22T06:31:06.105Z,1.93
2024-01-22T06:36:09.257Z,1.89
2024-01-22T06:41:13.087Z,1.93
2024-01-22T06:46:17.084Z,1.99
2024-01-22T06:51:27.112Z,2.01
2024-01-22T06:56:34.182Z,2.04
2024-01-22T07:01:37.382Z,2.08
2024-01-22T07:06:40.555Z,2.08
2024-01-22T07:11:43.653Z,2.09
2024-01-22T07:16:46.742Z,2.12
2024-01-22T07:21:50.256Z,2.13
2024-01-22T07:26:53.265Z,2.18
2024-01-22T07:32:01.931Z,2.19
2024-01-22T07:37:05.274Z,2.19
2024-01-22T07:42:10.284Z,2.30
2024-01-22T07:47:13.302Z,2.29
2024-01-22T07:52:17.172Z,2.30
2024-01-22T07:57:20.366Z,2.32
2024-01-22T08:02:23.740Z,2.35
2024-01-22T08:07:26.760Z,2.41
2024-01-22T08:12:29.655Z,2.44
2024-01-22T08:17:33.151Z,2.48
2024-01-22T08:22:36.383Z,2.58
2024-01-22T08:27:42.240Z,2.60
2024-01-22T08:32:45.374Z,2.58
2024-01-22T08:37:55.755Z,2.58
2024-01-22T08:42:59.213Z,2.55
2024-01-22T08:48:02.223Z,2.58
2024-01-22T08:53:05.209Z,2.58
2024-01-22T08:58:08.073Z,2.54
2024-01-22T09:03:11.783Z,2.43
2024-01-22T09:08:14.921Z,2.27
2024-01-22T09:13:17.858Z,2.17
2024-01-22T09:18:20.945Z,2.11
2024-01-22T09:23:43.787Z,2.04
2024-01-22T09:29:06.597Z,2.04
2024-01-22T09:34:29.509Z,2.08
2024-01-22T09:39:53.281Z,2.13
2024-01-22T09:45:17.321Z,2.19
2024-01-22T09:50:40.391Z,2.24
2024-01-22T09:55:43.508Z,2.28
2024-01-22T10:00:48.199Z,2.27
2024-01-22T10:05:55.470Z,2.30
2024-01-22T10:10:58.697Z,2.38
2024-01-22T10:16:11.587Z,2.50
2024-01-22T10:21:20.124Z,2.56
2024-01-22T10:26:26.137Z,2.56
2024-01-22T10:31:28.959Z,2.57
2024-01-22T10:36:32.055Z,2.62
2024-01-22T10:41:36.569Z,2.71
2024-01-22T10:46:40.344Z,2.76
2024-01-22T10:51:44.575Z,2.86
2024-01-22T10:57:15.092Z,2.96
2024-01-22T11:02:24.931Z,3.10
2024-01-22T11:07:30.204Z,3.20
2024-01-22T11:12:50.012Z,3.28
2024-01-22T11:17:53.071Z,3.36
2024-01-22T11:23:01.392Z,3.43
2024-01-22T11:28:06.645Z,3.43
2024-01-22T11:33:25.396Z,3.49
2024-01-22T11:38:49.880Z,3.51
2024-01-22T11:43:53.066Z,3.53
2024-01-22T11:48:57.400Z,3.50
2024-01-22T11:54:00.634Z,3.45
2024-01-22T11:59:04.036Z,3.36
2024-01-22T12:04:17.574Z,3.31
2024-01-22T12:09:21.861Z,3.30
2024-01-22T12:14:25.920Z,3.29
2024-01-22T12:19:29.366Z,3.25
2024-01-22T12:24:32.880Z,3.25
2024-01-22T12:29:35.829Z,3.27
2024-01-22T12:34:39.910Z,3.33
2024-01-22T12:39:43.124Z,3.40
2024-01-22T12:45:02.455Z,3.50
2024-01-22T12:50:06.398Z,3.55
2024-01-22T12:55:10.416Z,3.60
2024-01-22T13:00:14.332Z,3.63
2024-01-22T13:05:18.200Z,3.67
2024-01-22T13:10:21.213Z,3.76
2024-01-22T13:15:23.950Z,3.78
2024-01-22T13:20:27.053Z,3.89
2024-01-22T13:25:30.233Z,3.94
2024-01-22T13:30:33.118Z,3.97
2024-01-22T13:35:36.171Z,3.98
2024-01-22T13:40:38.925Z,3.97
2024-01-22T13:45:42.779Z,3.96
2024-01-22T13:50:46.095Z,4.01
2024-01-22T13:55:49.842Z,4.02
2024-01-22T14:00:53.071Z,4.04
2024-01-22T14:05:56.108Z,4.10
2024-01-22T14:10:58.789Z,4.11
2024-01-22T14:16:01.676Z,4.08
2024-01-22T14:21:07.272Z,4.08
2024-01-22T14:26:10.678Z,4.10
2024-01-22T14:31:14.324Z,4.15
2024-01-22T14:36:18.544Z,4.18
2024-01-22T14:41:21.358Z,4.16
2024-01-22T14:46:27.466Z,4.13
2024-01-22T14:51:32.510Z,4.12
2024-01-22T14:56:35.287Z,4.15
2024-01-22T15:01:38.350Z,4.18
2024-01-22T15:06:42.970Z,4.15
2024-01-22T15:11:46.056Z,4.15
2024-01-22T15:16:50.321Z,4.15
2024-01-22T15:21:53.331Z,4.18
2024-01-22T15:26:56.128Z,4.19
2024-01-22T15:31:59.398Z,4.17
2024-01-22T15:37:02.724Z,4.23
2024-01-22T15:42:06.500Z,4.30
2024-01-22T15:47:30.057Z,4.30
2024-01-22T15:52:53.049Z,4.30
2024-01-22T15:58:19.930Z,4.34
2024-01-22T16:03:42.844Z,4.33
2024-01-22T16:08:45.904Z,4.36
2024-01-22T16:13:50.197Z,4.42
2024-01-22T16:19:11.247Z,4.41
2024-01-22T16:24:14.844Z,4.42
2024-01-22T16:29:17.640Z,4.41
2024-01-22T16:34:20.715Z,4.46
2024-01-22T16:39:23.531Z,4.43
2024-01-22T16:44:26.351Z,4.44
2024-01-22T16:49:29.327Z,4.44
2024-01-22T16:54:33.066Z,4.49
2024-01-22T16:59:36.133Z,4.51
2024-01-22T17:04:39.069Z,4.54
2024-01-22T17:09:42.225Z,4.50
2024-01-22T17:14:46.511Z,4.53
2024-01-22T17:19:49.809Z,4.54
2024-01-22T17:24:53.061Z,4.54
2024-01-22T17:29:55.917Z,4.53
2024-01-22T17:34:59.520Z,4.54
2024-01-22T17:40:03.116Z,4.58
2024-01-22T17:45:06.827Z,4.61
2024-01-22T17:50:10.259Z,4.64
2024-01-22T17:55:13.660Z,4.62
2024-01-22T18:00:17.167Z,4.65
2024-01-22T18:05:20.194Z,4.69
2024-01-22T18:10:23.270Z,4.71
2024-01-22T18:15:26.174Z,4.74
2024-01-22T18:20:29.141Z,4.77
2024-01-22T18:25:32.011Z,4.75
2024-01-22T18:30:38.166Z,4.79
2024-01-22T18:35:41.149Z,4.85
2024-01-22T18:40:44.326Z,4.85
2024-01-22T18:45:47.390Z,4.82
2024-01-22T18:50:50.404Z,4.81
2024-01-22T18:55:53.227Z,4.82
2024-01-22T19:00:57.150Z,4.80
2024-01-22T19:06:03.314Z,4.75
2024-01-22T19:11:06.452Z,4.74
2024-01-22T19:16:09.228Z,4.78
2024-01-22T19:21:16.177Z,4.80
2024-01-22T19:26:19.036Z,4.81
2024-01-22T19:31:21.958Z,4.79
2024-01-22T19:36:24.906Z,4.81
2024-01-22T19:41:27.925Z,4.80
2024-01-22T19:46:31.013Z,4.80
2024-01-22T19:51:34.097Z,4.85
2024-01-22T19:56:44.546Z,4.85
2024-01-22T20:01:47.442Z,4.88
2024-01-22T20:07:10.478Z,4.88
2024-01-22T20:12:33.622Z,4.87
2024-01-22T20:17:56.616Z,4.86
2024-01-22T20:23:20.050Z,4.85
2024-01-22T20:28:42.976Z,4.89
2024-01-22T20:34:06.004Z,4.91
2024-01-22T20:39:29.029Z,4.94
2024-01-22T20:44:52.385Z,4.98
2024-01-22T20:49:55.967Z,5.01
2024-01-22T20:54:59.006Z,5.07
2024-01-22T21:00:02.050Z,5.09
2024-01-22T21:05:25.238Z,5.04
2024-01-22T21:10:48.268Z,5.11
2024-01-22T21:16:12.179Z,5.10
2024-01-22T21:21:35.367Z,5.08
2024-01-22T21:26:58.252Z,5.06
2024-01-22T21:32:20.965Z,5.06
2024-01-22T21:37:43.872Z,5.08
2024-01-22T21:42:49.546Z,5.11
2024-01-22T21:47:52.472Z,5.16
2024-01-22T21:52:55.370Z,5.18
2024-01-22T21:57:58.108Z,5.22
2024-01-22T22:03:01.068Z,5.24
2024-01-22T22:08:24.210Z,5.26
2024-01-22T22:13:28.082Z,5.22
2024-01-22T22:18:31.742Z,5.17
2024-01-22T22:23:54.913Z,5.15
2024-01-22T22:29:17.752Z,5.18
2024-01-22T22:34:40.582Z,5.20
2024-01-22T22:40:03.768Z,5.20
2024-01-22T22:45:07.397Z,5.18
2024-01-22T22:50:11.280Z,5.20
2024-01-22T22:55:33.975Z,5.23
2024-01-22T23:00:56.755Z,5.20
2024-01-22T23:06:19.673Z,5.19
2024-01-22T23:11:42.666Z,5.19
2024-01-22T23:16:46.508Z,5.15
2024-01-22T23:21:49.610Z,5.16
2024-01-22T23:26:52.355Z,5.16
2024-01-22T23:31:55.133Z,5.16
2024-01-22T23:36:59.418Z,5.12
2024-01-22T23:42:02.314Z,5.05
2024-01-22T23:47:05.804Z,5.01
2024-01-22T23:52:08.930Z,5.06
2024-01-22T23:57:12.144Z,5.00
